Time,TemperatureF,DewpointF,PressureIn,WindDirection,WindDirectionDegrees,WindSpeedMPH,WindSpeedGustMPH,Humidity,HourlyPrecipIn,Conditions,Clouds,dailyrainin,SolarRadiationWatts/m^2,SoftwareType,DateUTC
2013-08-04 00:03:00,55.0,54.0,-100.00,South,181,0.0,2.0,96,0.00,,,-99.99,0.000000,,2013-08-04 04:03:00,
2013-08-04 00:32:00,54.0,53.0,-100.00,SSW,213,0.0,0.0,96,0.00,,,0.00,0.000000,,2013-08-04 04:32:00,
2013-08-04 00:42:00,54.0,53.0,-100.00,SSW,213,0.0,0.0,96,0.00,,,0.00,0.000000,,2013-08-04 04:42:00,
2013-08-04 00:52:00,54.0,53.0,-100.00,SSW,213,0.0,0.0,96,0.00,,,0.00,0.000000,,2013-08-04 04:52:00,
2013-08-04 01:02:00,54.0,53.0,-100.00,SSW,213,0.0,0.0,96,0.00,,,0.00,0.000000,,2013-08-04 05:02:00,
2013-08-04 01:32:00,53.0,52.0,-100.00,NNW,343,0.0,0.0,98,0.00,,,0.00,0.000000,,2013-08-04 05:32:00,
2013-08-04 01:42:00,53.0,52.0,-100.00,NNW,343,0.0,0.0,98,0.00,,,0.00,0.000000,,2013-08-04 05:42:00,
2013-08-04 01:52:00,53.0,52.0,-100.00,NNW,343,0.0,0.0,98,0.00,,,0.00,0.000000,,2013-08-04 05:52:00,
2013-08-04 02:02:00,53.0,52.0,-100.00,NNW,343,0.0,0.0,98,0.00,,,0.00,0.000000,,2013-08-04 06:02:00,
2013-08-04 02:32:00,53.0,52.0,-100.00,SSW,207,0.0,3.0,97,0.00,,,0.00,0.000000,,2013-08-04 06:32:00,
2013-08-04 02:43:00,53.0,52.0,-100.00,SSW,207,0.0,3.0,97,0.00,,,0.00,0.000000,,2013-08-04 06:43:00,
2013-08-04 02:52:00,53.0,52.0,-100.00,SSW,207,0.0,3.0,97,0.00,,,0.00,0.000000,,2013-08-04 06:52:00,
2013-08-04 03:02:00,53.0,52.0,-100.00,SSW,207,0.0,3.0,97,0.00,,,0.00,0.000000,,2013-08-04 07:02:00,
2013-08-04 03:33:00,54.0,53.0,-100.00,NNW,347,0.0,2.0,98,0.00,,,0.00,0.000000,,2013-08-04 07:33:00,
2013-08-04 03:43:00,54.0,53.0,-100.00,NNW,347,0.0,2.0,98,0.00,,,0.00,0.000000,,2013-08-04 07:43:00,
2013-08-04 03:53:00,54.0,53.0,-100.00,NNW,347,0.0,2.0,98,0.00,,,0.00,0.000000,,2013-08-04 07:53:00,
2013-08-04 04:02:00,54.0,53.0,-100.00,NNW,347,0.0,2.0,98,0.00,,,0.00,0.000000,,2013-08-04 08:02:00,
2013-08-04 04:33:00,53.0,52.0,-100.00,South,185,0.0,0.0,98,0.00,,,0.00,0.000000,,2013-08-04 08:33:00,
2013-08-04 04:43:00,53.0,52.0,-100.00,South,185,0.0,0.0,98,0.00,,,0.00,0.000000,,2013-08-04 08:43:00,
2013-08-04 04:53:00,53.0,52.0,-100.00,South,185,0.0,0.0,98,0.00,,,0.00,0.000000,,2013-08-04 08:53:00,
2013-08-04 05:02:00,53.0,52.0,-100.00,South,185,0.0,0.0,98,0.00,,,0.00,0.000000,,2013-08-04 09:02:00,
2013-08-04 05:32:00,52.0,51.0,-100.00,South,169,0.0,3.0,98,0.00,,,0.00,0.000000,,2013-08-04 09:32:00,
2013-08-04 05:43:00,52.0,51.0,-100.00,South,169,0.0,3.0,98,0.00,,,0.00,0.000000,,2013-08-04 09:43:00,
2013-08-04 05:52:00,52.0,51.0,-100.00,South,169,0.0,3.0,98,0.00,,,0.00,0.000000,,2013-08-04 09:52:00,
2013-08-04 06:02:00,52.0,51.0,-100.00,South,169,0.0,3.0,98,0.00,,,0.00,0.000000,,2013-08-04 10:02:00,
2013-08-04 06:32:00,51.0,50.0,-100.00,NNW,335,2.0,3.0,98,0.00,,,-99.99,0.000000,,2013-08-04 10:32:00,
2013-08-04 06:43:00,51.0,50.0,-100.00,NNW,335,2.0,3.0,98,0.00,,,-99.99,0.000000,,2013-08-04 10:43:00,
2013-08-04 06:53:00,51.0,50.0,-100.00,NNW,335,2.0,3.0,98,0.00,,,-99.99,0.000000,,2013-08-04 10:53:00,
2013-08-04 07:02:00,51.0,50.0,-100.00,NNW,335,2.0,3.0,98,0.00,,,-99.99,0.000000,,2013-08-04 11:02:00,
2013-08-04 07:32:00,52.0,51.0,-100.00,WSW,257,0.0,4.0,98,0.00,,,0.00,13.000000,,2013-08-04 11:32:00,
2013-08-04 07:42:00,52.0,51.0,-100.00,WSW,257,0.0,4.0,98,0.00,,,0.00,13.000000,,2013-08-04 11:42:00,
2013-08-04 07:53:00,52.0,51.0,-100.00,WSW,257,0.0,4.0,98,0.00,,,0.00,13.000000,,2013-08-04 11:53:00,
2013-08-04 08:02:00,52.0,51.0,-100.00,WSW,257,0.0,4.0,98,0.00,,,0.00,13.000000,,2013-08-04 12:02:00,
2013-08-04 08:32:00,54.0,53.0,-100.00,SW,225,0.0,0.0,98,0.00,,,0.00,41.000000,,2013-08-04 12:32:00,
2013-08-04 08:43:00,54.0,53.0,-100.00,SW,225,0.0,0.0,98,0.00,,,0.00,41.000000,,2013-08-04 12:43:00,
2013-08-04 08:53:00,54.0,53.0,-100.00,SW,225,0.0,0.0,98,0.00,,,0.00,41.000000,,2013-08-04 12:53:00,
2013-08-04 09:02:00,54.0,53.0,-100.00,SW,225,0.0,0.0,98,0.00,,,0.00,41.000000,,2013-08-04 13:02:00,
2013-08-04 09:32:00,58.0,54.0,-100.00,NNW,330,4.0,9.0,87,0.00,,,0.00,108.000000,,2013-08-04 13:32:00,
2013-08-04 09:43:00,58.0,54.0,-100.00,NNW,330,4.0,9.0,87,0.00,,,0.00,108.000000,,2013-08-04 13:43:00,
2013-08-04 09:52:00,58.0,54.0,-100.00,NNW,330,4.0,9.0,87,0.00,,,0.00,108.000000,,2013-08-04 13:52:00,
2013-08-04 10:02:00,58.0,54.0,-100.00,NNW,330,4.0,9.0,87,0.00,,,0.00,108.000000,,2013-08-04 14:02:00,
2013-08-04 10:33:00,61.0,55.0,-100.00,NW,320,4.0,11.0,80,0.00,,,0.00,268.000000,,2013-08-04 14:33:00,
2013-08-04 10:43:00,61.0,55.0,-100.00,NW,320,4.0,11.0,80,0.00,,,0.00,268.000000,,2013-08-04 14:43:00,
2013-08-04 10:53:00,61.0,55.0,-100.00,NW,320,4.0,11.0,80,0.00,,,0.00,268.000000,,2013-08-04 14:53:00,
2013-08-04 11:02:00,61.0,55.0,-100.00,NW,320,4.0,11.0,80,0.00,,,0.00,268.000000,,2013-08-04 15:02:00,
2013-08-04 11:32:00,66.0,53.0,-100.00,North,349,5.0,12.0,64,0.00,,,0.00,524.000000,,2013-08-04 15:32:00,
2013-08-04 11:43:00,66.0,53.0,-100.00,North,349,5.0,12.0,64,0.00,,,0.00,524.000000,,2013-08-04 15:43:00,
2013-08-04 11:53:00,66.0,53.0,-100.00,North,349,5.0,12.0,64,0.00,,,0.00,524.000000,,2013-08-04 15:53:00,
2013-08-04 12:02:00,66.0,53.0,-100.00,North,349,5.0,12.0,64,0.00,,,0.00,524.000000,,2013-08-04 16:02:00,
2013-08-04 12:33:00,66.0,54.0,-100.00,NW,322,5.0,16.0,65,0.00,,,0.00,593.000000,,2013-08-04 16:33:00,
2013-08-04 12:43:00,66.0,54.0,-100.00,NW,322,5.0,16.0,65,0.00,,,0.00,593.000000,,2013-08-04 16:43:00,
2013-08-04 12:53:00,66.0,54.0,-100.00,NW,322,5.0,16.0,65,0.00,,,0.00,593.000000,,2013-08-04 16:53:00,
2013-08-04 13:02:00,66.0,54.0,-100.00,NW,322,5.0,16.0,65,0.00,,,0.00,593.000000,,2013-08-04 17:02:00,
2013-08-04 13:32:00,70.0,54.0,-100.00,NNW,331,6.0,13.0,57,0.00,,,0.00,861.000000,,2013-08-04 17:32:00,
2013-08-04 13:43:00,70.0,54.0,-100.00,NNW,331,6.0,13.0,57,0.00,,,0.00,861.000000,,2013-08-04 17:43:00,
2013-08-04 13:53:00,70.0,54.0,-100.00,NNW,331,6.0,13.0,57,0.00,,,0.00,861.000000,,2013-08-04 17:53:00,
2013-08-04 14:02:00,70.0,54.0,-100.00,NNW,331,6.0,13.0,57,0.00,,,0.00,861.000000,,2013-08-04 18:02:00,
2013-08-04 14:33:00,71.0,54.0,-100.00,NW,308,5.0,15.0,56,0.00,,,0.00,803.000000,,2013-08-04 18:33:00,
2013-08-04 14:43:00,71.0,54.0,-100.00,NW,308,5.0,15.0,56,0.00,,,0.00,803.000000,,2013-08-04 18:43:00,
2013-08-04 14:52:00,71.0,54.0,-100.00,NW,308,5.0,15.0,56,0.00,,,0.00,803.000000,,2013-08-04 18:52:00,
2013-08-04 15:02:00,71.0,54.0,-100.00,NW,308,5.0,15.0,56,0.00,,,0.00,803.000000,,2013-08-04 19:02:00,
2013-08-04 15:33:00,70.0,53.0,-100.00,NW,326,7.0,13.0,55,0.00,,,0.00,834.000000,,2013-08-04 19:33:00,
2013-08-04 15:43:00,70.0,53.0,-100.00,NW,326,7.0,13.0,55,0.00,,,0.00,834.000000,,2013-08-04 19:43:00,
2013-08-04 15:53:00,70.0,53.0,-100.00,NW,326,7.0,13.0,55,0.00,,,0.00,834.000000,,2013-08-04 19:53:00,
2013-08-04 16:02:00,70.0,53.0,-100.00,NW,326,7.0,13.0,55,0.00,,,0.00,834.000000,,2013-08-04 20:02:00,
2013-08-04 16:33:00,72.0,52.0,-100.00,NW,324,4.0,14.0,50,0.00,,,0.00,803.000000,,2013-08-04 20:33:00,
2013-08-04 16:42:00,72.0,52.0,-100.00,NW,324,4.0,14.0,50,0.00,,,0.00,803.000000,,2013-08-04 20:42:00,
2013-08-04 16:53:00,72.0,52.0,-100.00,NW,324,4.0,14.0,50,0.00,,,0.00,803.000000,,2013-08-04 20:53:00,
2013-08-04 17:02:00,72.0,52.0,-100.00,NW,324,4.0,14.0,50,0.00,,,0.00,803.000000,,2013-08-04 21:02:00,
2013-08-04 17:32:00,73.0,55.0,-100.00,NNW,327,5.0,14.0,54,0.00,,,0.00,730.000000,,2013-08-04 21:32:00,
2013-08-04 17:43:00,73.0,55.0,-100.00,NNW,327,5.0,14.0,54,0.00,,,0.00,730.000000,,2013-08-04 21:43:00,
2013-08-04 17:53:00,73.0,55.0,-100.00,NNW,327,5.0,14.0,54,0.00,,,0.00,730.000000,,2013-08-04 21:53:00,
2013-08-04 18:02:00,73.0,55.0,-100.00,NNW,327,5.0,14.0,54,0.00,,,0.00,730.000000,,2013-08-04 22:02:00,
2013-08-04 18:32:00,68.0,53.0,-100.00,NNW,329,5.0,12.0,59,0.00,,,0.00,503.000000,,2013-08-04 22:32:00,
2013-08-04 18:43:00,68.0,53.0,-100.00,NNW,329,5.0,12.0,59,0.00,,,0.00,503.000000,,2013-08-04 22:43:00,
2013-08-04 18:53:00,68.0,53.0,-100.00,NNW,329,5.0,12.0,59,0.00,,,0.00,503.000000,,2013-08-04 22:53:00,
2013-08-04 19:02:00,68.0,53.0,-100.00,NNW,329,5.0,12.0,59,0.00,,,0.00,503.000000,,2013-08-04 23:02:00,
2013-08-04 19:32:00,67.0,52.0,-100.00,NNW,327,5.0,13.0,59,0.00,,,0.00,287.000000,,2013-08-04 23:32:00,
2013-08-04 19:43:00,67.0,52.0,-100.00,NNW,327,5.0,13.0,59,0.00,,,0.00,287.000000,,2013-08-04 23:43:00,
2013-08-04 19:53:00,67.0,52.0,-100.00,NNW,327,5.0,13.0,59,0.00,,,0.00,287.000000,,2013-08-04 23:53:00,
2013-08-04 20:02:00,67.0,52.0,-100.00,NNW,327,5.0,13.0,59,0.00,,,0.00,287.000000,,2013-08-05 00:02:00,
2013-08-04 20:32:00,63.0,54.0,-100.00,NNW,331,4.0,9.0,73,0.00,,,0.00,64.000000,,2013-08-05 00:32:00,
2013-08-04 20:42:00,63.0,54.0,-100.00,NNW,331,4.0,9.0,73,0.00,,,0.00,64.000000,,2013-08-05 00:42:00,
2013-08-04 20:53:00,63.0,54.0,-100.00,NNW,331,4.0,9.0,73,0.00,,,0.00,64.000000,,2013-08-05 00:53:00,
2013-08-04 21:02:00,63.0,54.0,-100.00,NNW,331,4.0,9.0,73,0.00,,,0.00,64.000000,,2013-08-05 01:02:00,
2013-08-04 21:33:00,60.0,54.0,-100.00,ESE,109,0.0,8.0,82,0.00,,,0.00,3.000000,,2013-08-05 01:33:00,
2013-08-04 21:43:00,60.0,54.0,-100.00,ESE,109,0.0,8.0,82,0.00,,,0.00,3.000000,,2013-08-05 01:43:00,
2013-08-04 21:52:00,60.0,54.0,-100.00,ESE,109,0.0,8.0,82,0.00,,,0.00,3.000000,,2013-08-05 01:52:00,
2013-08-04 22:02:00,60.0,54.0,-100.00,ESE,109,0.0,8.0,82,0.00,,,0.00,3.000000,,2013-08-05 02:02:00,
2013-08-04 22:33:00,55.0,54.0,-100.00,SSW,199,0.0,2.0,95,0.00,,,0.00,0.000000,,2013-08-05 02:33:00,
2013-08-04 22:43:00,55.0,54.0,-100.00,SSW,199,0.0,2.0,95,0.00,,,0.00,0.000000,,2013-08-05 02:43:00,
2013-08-04 22:53:00,55.0,54.0,-100.00,SSW,199,0.0,2.0,95,0.00,,,0.00,0.000000,,2013-08-05 02:53:00,
2013-08-04 23:02:00,55.0,54.0,-100.00,SSW,199,0.0,2.0,95,0.00,,,0.00,0.000000,,2013-08-05 03:02:00,
2013-08-04 23:32:00,54.0,53.0,-100.00,South,189,0.0,2.0,96,0.00,,,0.00,0.000000,,2013-08-05 03:32:00,
2013-08-04 23:42:00,54.0,53.0,-100.00,South,189,0.0,2.0,96,0.00,,,0.00,0.000000,,2013-08-05 03:42:00,
2013-08-04 23:53:00,54.0,53.0,-100.00,South,189,0.0,2.0,96,0.00,,,0.00,0.000000,,2013-08-05 03:53:00,